Time;durP1;ratioP1;P1;durP2;ratioP2;P2;SDS_P1;SDS_P2;PMS_P1;PMS_P2;Temp;Humidity;BMP_temperature;BMP_pressure;BME280_temperature;BME280_humidity;BME280_pressure;Samples;Min_cycle;Max_cycle;Signal;HPM_P1;HPM_P2
2024/02/21 00:01:22;;;;;;;9.07;4.35;;;;;;;4.57;80.08;94539.94;5005705;28;20021;-75
2024/02/21 00:03:47;;;;;;;6.07;3.72;;;;;;;4.60;79.71;94540.22;5005694;28;20092;-74
2024/02/21 00:06:13;;;;;;;5.03;3.30;;;;;;;4.61;79.55;94544.44;5005394;28;20014;-74
2024/02/21 00:08:38;;;;;;;6.30;3.67;;;;;;;4.59;79.86;94543.13;5005365;28;20018;-74
2024/02/21 00:11:04;;;;;;;5.55;3.00;;;;;;;4.58;79.54;94533.59;5004732;28;20217;-76
2024/02/21 00:13:29;;;;;;;6.00;3.28;;;;;;;4.58;79.70;94538.88;5005537;28;20089;-76
2024/02/21 00:15:55;;;;;;;5.20;3.20;;;;;;;4.54;79.55;94535.97;5005804;28;20021;-76
2024/02/21 00:18:20;;;;;;;7.68;3.20;;;;;;;4.54;79.52;94533.34;5005928;28;20072;-76
2024/02/21 00:20:46;;;;;;;5.85;2.95;;;;;;;4.55;79.92;94536.78;5005848;28;20022;-76
2024/02/21 00:23:11;;;;;;;6.93;3.50;;;;;;;4.51;79.80;94530.41;5005718;28;20026;-76
2024/02/21 00:25:37;;;;;;;6.30;3.60;;;;;;;4.47;80.01;94532.78;5005883;28;20051;-76
2024/02/21 00:28:02;;;;;;;7.70;3.40;;;;;;;4.45;79.93;94531.44;5005607;28;20097;-75
2024/02/21 00:30:28;;;;;;;5.82;2.92;;;;;;;4.47;80.10;94526.72;5004031;28;20097;-75
2024/02/21 00:32:53;;;;;;;7.55;3.95;;;;;;;4.50;80.25;94527.00;5005171;28;20045;-76
2024/02/21 00:35:19;;;;;;;6.50;3.00;;;;;;;4.52;80.39;94521.44;5004396;28;20017;-75
2024/02/21 00:37:44;;;;;;;7.18;4.38;;;;;;;4.52;80.31;94529.34;5005541;28;20026;-75
2024/02/21 00:40:10;;;;;;;8.27;3.95;;;;;;;4.58;80.11;94523.84;5005426;28;20030;-76
2024/02/21 00:42:36;;;;;;;7.55;3.70;;;;;;;4.68;79.74;94532.84;5005569;28;20022;-75
2024/02/21 00:45:01;;;;;;;8.40;4.05;;;;;;;4.67;79.49;94526.00;5004969;28;20097;-75
2024/02/21 00:47:26;;;;;;;6.47;3.30;;;;;;;4.61;79.91;94525.19;5005182;28;20050;-76
2024/02/21 00:49:52;;;;;;;6.25;4.15;;;;;;;4.60;80.17;94524.38;5004998;28;20272;-75
2024/02/21 00:52:18;;;;;;;6.15;3.60;;;;;;;4.55;80.06;94529.63;5004071;28;20022;-76
2024/02/21 00:54:43;;;;;;;7.38;3.60;;;;;;;4.55;80.05;94518.28;5005057;28;20034;-75
2024/02/21 00:57:08;;;;;;;8.20;4.13;;;;;;;4.59;80.04;94520.16;5005050;28;20052;-76
2024/02/21 00:59:34;;;;;;;7.35;4.13;;;;;;;4.66;79.98;94513.81;5004885;28;20037;-75
2024/02/21 01:01:59;;;;;;;8.43;4.53;;;;;;;4.72;79.79;94508.31;5004874;28;20033;-75
2024/02/21 01:04:25;;;;;;;7.97;4.53;;;;;;;4.77;79.60;94510.19;5004955;28;20053;-76
2024/02/21 01:06:50;;;;;;;7.68;4.07;;;;;;;4.79;79.67;94500.16;5004775;28;20050;-76
2024/02/21 01:09:16;;;;;;;8.95;4.50;;;;;;;4.85;79.45;94499.09;5004754;28;20128;-75
2024/02/21 01:11:41;;;;;;;7.85;4.65;;;;;;;4.83;79.42;94495.94;5004296;28;20205;-75
2024/02/21 01:14:06;;;;;;;8.85;4.88;;;;;;;4.75;79.76;94494.59;5004851;28;20065;-75
2024/02/21 01:16:32;;;;;;;9.75;4.88;;;;;;;4.79;79.86;94495.66;5004779;28;20026;-75
2024/02/21 01:18:57;;;;;;;7.57;4.10;;;;;;;4.79;79.51;94498.28;5004662;28;20049;-75
2024/02/21 01:21:23;;;;;;;8.40;4.80;;;;;;;4.77;79.44;94489.84;5004157;28;20024;-75
2024/02/21 01:23:48;;;;;;;8.80;5.07;;;;;;;4.75;79.88;94481.38;5004490;28;20321;-75
2024/02/21 01:26:15;;;;;;;8.90;4.60;;;;;;;4.68;79.56;94486.13;5004531;28;20022;-74
2024/02/21 01:28:41;;;;;;;7.50;4.53;;;;;;;4.68;79.82;94480.84;5004044;28;20038;-77
2024/02/21 01:31:07;;;;;;;8.23;4.30;;;;;;;4.68;79.11;94490.59;5004410;28;20014;-77
2024/02/21 01:33:34;;;;;;;6.22;3.78;;;;;;;4.66;78.93;94488.25;5004298;28;20022;-77
2024/02/21 01:36:03;;;;;;;8.00;4.88;;;;;;;4.65;78.69;94489.28;5004439;28;20213;-76
2024/02/21 01:38:29;;;;;;;7.65;4.70;;;;;;;4.57;78.68;94487.94;5004351;28;20104;-76
2024/02/21 01:40:55;;;;;;;8.32;5.07;;;;;;;4.51;78.30;94481.03;5003940;28;20324;-75
2024/02/21 01:43:20;;;;;;;8.65;5.28;;;;;;;4.49;78.74;94474.44;5003809;28;20022;-75
2024/02/21 01:45:54;;;;;;;9.73;5.57;;;;;;;4.48;78.16;94481.56;5003793;28;20022;-76
2024/02/21 01:48:22;;;;;;;12.75;6.10;;;;;;;4.46;78.07;94478.41;5004233;28;20026;-76
2024/02/21 01:50:49;;;;;;;10.60;6.53;;;;;;;4.48;77.87;94467.56;5004128;28;20097;-75
2024/02/21 01:53:29;;;;;;;10.55;6.55;;;;;;;4.40;77.84;94479.44;5003756;28;20312;-75
2024/02/21 01:55:55;;;;;;;12.30;7.07;;;;;;;4.41;78.01;94475.72;5004006;28;20313;-76
2024/02/21 01:58:21;;;;;;;14.65;7.03;;;;;;;4.46;77.54;94467.84;5004093;28;20034;-75
2024/02/21 02:00:48;;;;;;;13.32;7.47;;;;;;;4.45;77.09;94471.53;5004105;28;20050;-75
2024/02/21 02:03:17;;;;;;;14.43;8.32;;;;;;;4.48;76.87;94473.66;5004250;28;20368;-75
2024/02/21 02:05:46;;;;;;;12.35;7.38;;;;;;;4.41;76.61;94470.44;5003983;28;20030;-75
2024/02/21 02:08:14;;;;;;;14.00;7.40;;;;;;;4.46;76.76;94474.94;5004135;28;20217;-75
2024/02/21 02:10:41;;;;;;;15.63;8.20;;;;;;;4.52;76.92;94473.91;5004366;28;20089;-76
2024/02/21 02:13:06;;;;;;;15.57;8.10;;;;;;;4.58;76.25;94473.69;5004297;28;20077;-76
2024/02/21 02:15:46;;;;;;;12.27;6.93;;;;;;;4.58;76.25;94470.22;5004176;28;20034;-76
2024/02/21 02:18:12;;;;;;;16.02;8.18;;;;;;;4.58;75.99;94460.50;5003891;28;20019;-73
2024/02/21 02:20:38;;;;;;;15.25;8.38;;;;;;;4.57;76.34;94466.03;5003776;28;20018;-73
2024/02/21 02:23:09;;;;;;;13.93;8.10;;;;;;;4.60;76.62;94465.50;5003508;28;20093;-73
2024/02/21 02:25:36;;;;;;;17.48;9.10;;;;;;;4.53;76.62;94462.31;5003708;28;20443;-73
2024/02/21 02:28:02;;;;;;;14.13;8.68;;;;;;;4.58;76.63;94459.66;5003620;28;20022;-73
2024/02/21 02:30:27;;;;;;;15.18;8.07;;;;;;;4.58;76.54;94459.66;5003762;28;20065;-75
2024/02/21 02:32:53;;;;;;;14.50;8.55;;;;;;;4.56;76.51;94457.31;5004376;28;20030;-74
2024/02/21 02:35:18;;;;;;;14.75;8.75;;;;;;;4.61;76.21;94459.16;5007717;28;20053;-74
2024/02/21 02:37:50;;;;;;;15.88;9.45;;;;;;;4.66;76.17;94456.56;5007647;28;20037;-74
2024/02/21 02:40:15;;;;;;;17.48;9.10;;;;;;;4.61;76.05;94449.38;5007494;28;20072;-74
2024/02/21 02:42:41;;;;;;;15.68;9.02;;;;;;;4.58;76.26;94452.56;5007539;28;20034;-75
2024/02/21 02:45:07;;;;;;;16.20;9.02;;;;;;;4.61;76.00;94457.31;5007661;28;20325;-74
2024/02/21 02:47:34;;;;;;;17.25;9.23;;;;;;;4.66;76.00;94447.81;5007332;28;20029;-73
2024/02/21 02:50:00;;;;;;;15.55;8.52;;;;;;;4.67;76.11;94452.84;5006933;28;20026;-74
2024/02/21 02:52:25;;;;;;;19.35;9.75;;;;;;;4.67;75.61;94449.41;5007359;28;20026;-75
2024/02/21 02:54:51;;;;;;;16.48;9.40;;;;;;;4.60;75.55;94457.59;5006933;28;20058;-74
2024/02/21 02:57:18;;;;;;;16.73;9.25;;;;;;;4.63;75.75;94454.41;5006998;28;20097;-75
2024/02/21 02:59:50;;;;;;;15.95;8.98;;;;;;;4.58;75.88;94457.84;5007003;28;20084;-75
2024/02/21 03:02:16;;;;;;;19.40;9.88;;;;;;;4.55;76.05;94454.94;5006850;28;20042;-76
2024/02/21 03:04:41;;;;;;;15.35;9.38;;;;;;;4.67;75.94;94458.13;5006823;28;20317;-76
2024/02/21 03:07:07;;;;;;;16.25;9.27;;;;;;;4.78;75.74;94458.94;5006909;28;20022;-77
2024/02/21 03:09:32;;;;;;;16.83;9.88;;;;;;;4.80;75.91;94459.47;5006944;28;20030;-77
2024/02/21 03:12:02;;;;;;;13.20;7.93;;;;;;;4.73;76.09;94464.22;5006948;28;20068;-76
2024/02/21 03:14:28;;;;;;;18.58;10.20;;;;;;;4.69;75.93;94463.16;5006899;28;20350;-76
2024/02/21 03:16:53;;;;;;;15.70;8.85;;;;;;;4.54;76.04;94461.25;5006888;28;20037;-76
2024/02/21 03:19:19;;;;;;;13.98;8.50;;;;;;;4.61;76.19;94467.09;5006637;28;20091;-76
2024/02/21 03:21:44;;;;;;;15.88;9.88;;;;;;;4.62;75.66;94471.31;5006612;28;20022;-75
2024/02/21 03:24:10;;;;;;;15.27;9.48;;;;;;;4.63;75.60;94473.69;5006624;28;20022;-76
2024/02/21 03:26:35;;;;;;;19.73;9.50;;;;;;;4.72;75.32;94473.19;5005671;28;20022;-76
2024/02/21 03:29:01;;;;;;;17.00;9.25;;;;;;;4.71;75.48;94479.53;5006658;28;20019;-75
2024/02/21 03:31:26;;;;;;;14.80;9.15;;;;;;;4.75;75.42;94478.75;5006406;28;20022;-76
2024/02/21 03:33:51;;;;;;;15.98;8.80;;;;;;;4.72;74.86;94471.34;5006253;28;20202;-76
2024/02/21 03:36:17;;;;;;;16.95;8.60;;;;;;;4.70;74.88;94472.66;5006708;28;20342;-76
2024/02/21 03:38:42;;;;;;;17.48;9.43;;;;;;;4.78;74.70;94474.78;5006512;28;20022;-75
2024/02/21 03:41:07;;;;;;;14.70;9.38;;;;;;;4.81;74.19;94475.06;5005261;28;20033;-75
2024/02/21 03:43:33;;;;;;;14.48;8.90;;;;;;;4.87;74.36;94483.78;5006120;28;20022;-76
2024/02/21 03:45:58;;;;;;;15.98;8.98;;;;;;;4.88;74.63;94474.78;5005983;28;20073;-76
2024/02/21 03:48:24;;;;;;;18.27;10.48;;;;;;;4.90;73.99;94482.47;5006226;28;20042;-75
2024/02/21 03:50:50;;;;;;;18.88;8.52;;;;;;;4.90;73.89;94493.81;5006135;28;20022;-75
2024/02/21 03:53:15;;;;;;;17.85;9.80;;;;;;;4.97;74.00;94498.88;5005757;28;20022;-75
2024/02/21 03:55:40;;;;;;;14.43;8.00;;;;;;;4.85;74.04;94491.19;5005832;28;20094;-75
2024/02/21 03:58:06;;;;;;;16.58;9.98;;;;;;;4.89;73.82;94486.19;5006111;28;20093;-78
2024/02/21 04:00:31;;;;;;;17.48;9.23;;;;;;;4.85;73.93;94485.09;5005861;28;20018;-78
2024/02/21 04:02:57;;;;;;;16.90;9.40;;;;;;;4.88;73.95;94490.63;5004533;28;20022;-77
2024/02/21 04:05:22;;;;;;;22.60;9.85;;;;;;;4.94;73.44;94488.81;5005713;28;20033;-77
2024/02/21 04:07:47;;;;;;;20.08;10.85;;;;;;;4.94;73.94;94486.16;5005796;28;20268;-75
2024/02/21 04:10:13;;;;;;;16.88;10.10;;;;;;;4.91;73.98;94487.50;5005659;28;20014;-76
2024/02/21 04:12:38;;;;;;;21.48;10.45;;;;;;;4.86;74.72;94484.03;5005677;28;20089;-76
2024/02/21 04:15:04;;;;;;;18.42;10.68;;;;;;;4.77;74.38;94481.91;5004213;28;20102;-74
2024/02/21 04:17:30;;;;;;;18.33;10.52;;;;;;;4.81;74.42;94474.28;5005375;28;20210;-73
2024/02/21 04:20:05;;;;;;;18.35;10.57;;;;;;;4.83;74.25;94482.72;5005327;28;20053;-72
2024/02/21 04:22:31;;;;;;;19.10;11.32;;;;;;;4.83;74.98;94472.16;5005407;28;20214;-73
2024/02/21 04:24:56;;;;;;;21.58;11.30;;;;;;;4.93;74.52;94476.66;5005159;28;20030;-73
2024/02/21 04:27:22;;;;;;;25.25;10.50;;;;;;;4.90;75.12;94482.47;5005135;28;20022;-73
2024/02/21 04:29:47;;;;;;;22.88;12.43;;;;;;;4.96;75.11;94471.63;5005059;28;20141;-75
2024/02/21 04:32:13;;;;;;;16.67;9.73;;;;;;;4.92;75.55;94481.13;5005191;28;20076;-75
2024/02/21 04:34:41;;;;;;;19.45;11.30;;;;;;;4.92;75.17;94483.78;5005334;28;20225;-75
2024/02/21 04:37:06;;;;;;;21.08;12.07;;;;;;;4.93;75.17;94476.66;5005257;28;20026;-75
2024/02/21 04:39:32;;;;;;;24.48;12.05;;;;;;;4.86;74.53;94476.13;5004905;28;20106;-75
2024/02/21 04:41:57;;;;;;;19.42;11.82;;;;;;;4.89;74.50;94481.69;5005046;28;20022;-75
2024/02/21 04:44:23;;;;;;;20.13;11.45;;;;;;;4.88;74.94;94481.94;5004615;28;20025;-75
2024/02/21 04:46:48;;;;;;;21.13;12.20;;;;;;;4.90;75.15;94482.47;5004976;28;20204;-74
2024/02/21 04:49:13;;;;;;;28.70;12.57;;;;;;;4.89;75.13;94492.25;5004955;28;20018;-74
2024/02/21 04:51:40;;;;;;;24.05;12.15;;;;;;;4.90;74.87;94487.75;5005007;28;20030;-75
2024/02/21 04:54:06;;;;;;;19.05;10.80;;;;;;;4.79;74.96;94489.59;5004710;28;20053;-75
2024/02/21 04:56:31;;;;;;;20.67;10.95;;;;;;;4.63;75.37;94481.59;5004399;28;20035;-76
2024/02/21 04:58:57;;;;;;;19.17;11.80;;;;;;;4.53;76.09;94480.78;5004366;28;20061;-77
2024/02/21 05:01:22;;;;;;;23.15;11.70;;;;;;;4.49;76.23;94485.00;5004415;28;20030;-75
2024/02/21 05:03:48;;;;;;;19.02;10.98;;;;;;;4.48;76.07;94486.03;5004618;28;20027;-75
2024/02/21 05:06:13;;;;;;;22.73;11.90;;;;;;;4.41;76.31;94488.94;5004263;28;20030;-75
2024/02/21 05:08:39;;;;;;;23.20;12.02;;;;;;;4.38;76.72;94487.59;5004728;28;20027;-75
2024/02/21 05:11:05;;;;;;;23.50;12.32;;;;;;;4.37;76.77;94493.94;5004783;28;20026;-75
2024/02/21 05:13:30;;;;;;;24.17;11.88;;;;;;;4.25;77.15;94487.28;5004408;28;20355;-75
2024/02/21 05:15:55;;;;;;;23.25;11.57;;;;;;;4.19;77.64;94489.91;5004501;28;20332;-73
2024/02/21 05:18:21;;;;;;;20.15;11.40;;;;;;;4.12;77.13;94493.84;5004248;28;20026;-74
2024/02/21 05:20:46;;;;;;;20.77;11.25;;;;;;;4.00;76.01;94501.94;5004081;28;20029;-73
2024/02/21 05:23:12;;;;;;;19.85;10.85;;;;;;;3.95;75.44;94502.72;5004031;28;20317;-74
2024/02/21 05:25:37;;;;;;;21.70;10.45;;;;;;;3.94;74.81;94498.47;5004170;28;20030;-74
2024/02/21 05:28:05;;;;;;;18.75;10.70;;;;;;;3.93;74.28;94498.72;5004020;28;20220;-74
2024/02/21 05:30:31;;;;;;;17.17;9.25;;;;;;;3.90;74.99;94504.53;5003897;28;20029;-75
2024/02/21 05:32:56;;;;;;;16.23;9.60;;;;;;;3.93;75.16;94499.53;5004031;28;20224;-77
2024/02/21 05:35:28;;;;;;;18.13;9.63;;;;;;;3.93;75.46;94511.91;5003910;28;20018;-75
2024/02/21 05:37:54;;;;;;;17.77;10.88;;;;;;;3.97;75.73;94497.19;5003904;28;20029;-73
2024/02/21 05:40:19;;;;;;;17.27;10.27;;;;;;;4.00;75.50;94497.44;5003702;28;20221;-73
2024/02/21 05:42:44;;;;;;;16.55;9.40;;;;;;;4.05;75.35;94503.81;5003781;28;20030;-73
2024/02/21 05:45:10;;;;;;;15.95;9.18;;;;;;;4.14;75.31;94497.78;5003737;28;20065;-74
2024/02/21 05:47:35;;;;;;;17.17;10.57;;;;;;;4.18;74.99;94496.22;5003055;28;20033;-73
2024/02/21 05:50:01;;;;;;;18.65;9.63;;;;;;;4.27;74.99;94501.00;5001853;28;20022;-75
2024/02/21 05:52:26;;;;;;;18.52;10.13;;;;;;;4.34;74.98;94514.78;5003588;28;20045;-75
2024/02/21 05:54:52;;;;;;;16.17;9.27;;;;;;;4.40;74.85;94511.13;5003577;28;20042;-74
2024/02/21 05:57:18;;;;;;;18.10;10.15;;;;;;;4.41;74.32;94515.31;5003513;28;20363;-74
2024/02/21 05:59:43;;;;;;;19.52;10.07;;;;;;;4.45;74.36;94508.47;5003432;28;20026;-74
2024/02/21 06:02:09;;;;;;;18.35;10.35;;;;;;;4.53;73.87;94515.91;5003452;28;20336;-74
2024/02/21 06:04:34;;;;;;;23.15;10.57;;;;;;;4.52;73.40;94514.31;5003346;28;20042;-74
2024/02/21 06:07:01;;;;;;;13.65;8.00;;;;;;;4.62;72.91;94514.38;5002999;28;20084;-73
2024/02/21 06:09:26;;;;;;;18.65;10.57;;;;;;;4.57;73.34;94524.09;5002855;28;20023;-73
2024/02/21 06:11:52;;;;;;;17.02;9.45;;;;;;;4.60;73.53;94521.75;5001595;28;20026;-73
2024/02/21 06:14:17;;;;;;;21.90;10.30;;;;;;;4.73;73.25;94533.66;5002116;28;20321;-73
2024/02/21 06:16:43;;;;;;;19.92;9.93;;;;;;;4.77;73.08;94534.72;5003356;28;20037;-73
2024/02/21 06:19:09;;;;;;;17.20;10.50;;;;;;;4.79;73.47;94524.69;5002666;28;20026;-73
2024/02/21 06:21:34;;;;;;;20.15;10.00;;;;;;;4.87;73.14;94528.69;5001634;28;20347;-73
2024/02/21 06:24:00;;;;;;;23.23;11.10;;;;;;;4.91;72.93;94531.63;5002973;28;20034;-73
2024/02/21 06:26:25;;;;;;;16.15;9.45;;;;;;;4.97;72.85;94535.84;5003073;28;20018;-73
2024/02/21 06:28:50;;;;;;;19.25;10.35;;;;;;;5.12;73.08;94535.09;5002906;28;20380;-73
2024/02/21 06:31:16;;;;;;;19.00;9.73;;;;;;;5.18;72.59;94536.69;5003124;28;20105;-73
2024/02/21 06:33:41;;;;;;;17.35;10.10;;;;;;;5.16;72.29;94544.84;5003169;28;20060;-73
2024/02/21 06:36:07;;;;;;;20.58;11.32;;;;;;;5.21;71.84;94546.72;5003331;28;20306;-73
2024/02/21 06:38:33;;;;;;;20.00;10.55;;;;;;;5.27;71.90;94544.88;5002958;28;20073;-73
2024/02/21 06:41:00;;;;;;;20.42;10.70;;;;;;;5.20;71.98;94545.94;5003029;28;20022;-75
2024/02/21 06:43:26;;;;;;;20.48;11.60;;;;;;;5.19;72.63;94548.81;5002984;28;20041;-75
2024/02/21 06:45:51;;;;;;;19.25;10.90;;;;;;;5.21;72.21;94555.47;5003008;28;20038;-74
2024/02/21 06:48:18;;;;;;;22.80;11.77;;;;;;;5.24;72.51;94559.41;5003073;28;20034;-72
2024/02/21 06:50:44;;;;;;;27.83;11.18;;;;;;;5.31;72.39;94559.16;5003170;28;20328;-72
2024/02/21 06:53:09;;;;;;;26.52;11.73;;;;;;;5.35;71.84;94574.25;5002672;28;20031;-72
2024/02/21 06:55:35;;;;;;;22.65;11.68;;;;;;;5.45;71.64;94572.66;5002792;28;20018;-72
2024/02/21 06:58:01;;;;;;;21.15;11.20;;;;;;;5.52;71.66;94563.41;5002882;28;20061;-72
2024/02/21 07:00:28;;;;;;;17.67;10.30;;;;;;;5.53;71.28;94564.19;5002813;28;20026;-72
2024/02/21 07:02:54;;;;;;;21.88;11.05;;;;;;;5.54;71.48;94566.59;5002861;28;20248;-72
2024/02/21 07:05:19;;;;;;;24.95;12.40;;;;;;;5.56;71.15;94561.03;5002740;28;20032;-72
2024/02/21 07:07:44;;;;;;;20.38;11.77;;;;;;;5.46;71.79;94563.69;5002736;28;20049;-72
2024/02/21 07:10:11;;;;;;;22.75;12.90;;;;;;;5.55;72.00;94577.97;5002902;28;20085;-72
2024/02/21 07:12:38;;;;;;;26.35;11.90;;;;;;;5.52;72.12;94565.28;5002715;28;20036;-72
2024/02/21 07:15:04;;;;;;;22.25;12.18;;;;;;;5.66;71.38;94563.69;5002899;28;20194;-73
2024/02/21 07:17:30;;;;;;;30.45;12.80;;;;;;;5.65;71.48;94567.38;5002770;28;20019;-72
2024/02/21 07:19:56;;;;;;;29.95;13.38;;;;;;;5.69;71.08;94565.00;5005032;28;20394;-72
2024/02/21 07:22:22;;;;;;;24.08;12.57;;;;;;;5.69;71.06;94568.44;5006323;28;20022;-72
2024/02/21 07:24:47;;;;;;;24.30;12.27;;;;;;;5.77;71.01;94570.56;5006220;28;20033;-72
2024/02/21 07:27:15;;;;;;;26.98;12.55;;;;;;;5.77;70.91;94573.19;5005211;28;20212;-72
2024/02/21 07:29:41;;;;;;;28.65;13.63;;;;;;;5.78;71.21;94569.50;5005608;28;20049;-72
2024/02/21 07:32:06;;;;;;;26.95;13.40;;;;;;;5.85;70.72;94568.44;5005933;28;20085;-72
2024/02/21 07:34:31;;;;;;;23.35;12.10;;;;;;;5.72;70.82;94573.22;5004635;28;20022;-72
2024/02/21 07:36:57;;;;;;;21.40;11.90;;;;;;;5.75;71.06;94571.88;5006201;28;20046;-72
2024/02/21 07:39:22;;;;;;;19.35;11.30;;;;;;;5.69;71.34;94581.66;5005830;28;20046;-72
2024/02/21 07:41:49;;;;;;;23.85;12.15;;;;;;;5.72;71.50;94578.50;5005739;28;20030;-72
2024/02/21 07:44:15;;;;;;;21.17;10.85;;;;;;;5.75;71.26;94572.66;5004309;28;20026;-72
2024/02/21 07:46:40;;;;;;;21.08;12.23;;;;;;;5.74;71.36;94568.47;5004464;28;20093;-72
2024/02/21 07:49:06;;;;;;;23.70;12.43;;;;;;;5.88;71.22;94570.56;5004565;28;20077;-72
2024/02/21 07:51:31;;;;;;;27.73;13.48;;;;;;;5.90;71.11;94573.72;5004988;28;20026;-72
2024/02/21 07:53:57;;;;;;;20.77;11.95;;;;;;;5.92;71.10;94563.66;5004895;28;20050;-72
2024/02/21 07:56:22;;;;;;;24.45;12.05;;;;;;;5.94;71.12;94570.31;5005564;28;20014;-72
2024/02/21 07:58:47;;;;;;;25.58;12.93;;;;;;;6.02;70.82;94569.78;5005459;28;20042;-72
2024/02/21 08:01:20;;;;;;;23.80;12.38;;;;;;;6.07;70.01;94566.34;5005729;28;20026;-72
2024/02/21 08:03:45;;;;;;;25.25;12.45;;;;;;;6.20;70.08;94575.56;5005523;28;20258;-72
2024/02/21 08:06:12;;;;;;;26.77;13.13;;;;;;;6.21;69.84;94572.66;5004361;28;20018;-72
2024/02/21 08:08:38;;;;;;;20.13;11.40;;;;;;;6.22;69.51;94566.31;5005711;28;20038;-73
2024/02/21 08:11:04;;;;;;;22.55;12.07;;;;;;;6.30;69.30;94561.53;5005435;28;20089;-72
2024/02/21 08:13:29;;;;;;;21.45;12.40;;;;;;;6.48;68.80;94574.19;5005547;28;20030;-72
2024/02/21 08:15:55;;;;;;;21.23;11.45;;;;;;;6.60;68.33;94568.59;5005292;28;20030;-72
2024/02/21 08:18:20;;;;;;;23.88;12.55;;;;;;;6.68;67.86;94567.25;5005189;28;20026;-72
2024/02/21 08:20:45;;;;;;;23.08;11.73;;;;;;;6.58;67.90;94579.47;5005259;28;20072;-72
2024/02/21 08:23:11;;;;;;;21.20;11.65;;;;;;;6.55;67.72;94563.31;5003967;28;20033;-72
2024/02/21 08:25:36;;;;;;;21.17;11.90;;;;;;;6.63;67.54;94566.22;5004084;28;20045;-72
2024/02/21 08:28:02;;;;;;;18.80;11.35;;;;;;;6.61;67.75;94557.75;5005144;28;20022;-72
2024/02/21 08:30:27;;;;;;;22.52;12.38;;;;;;;6.74;67.22;94560.88;5004179;28;20332;-72
2024/02/21 08:32:56;;;;;;;22.67;11.90;;;;;;;6.83;66.50;94559.22;5005178;28;20034;-72
2024/02/21 08:35:24;;;;;;;21.20;11.10;;;;;;;6.81;65.98;94556.06;5004791;28;20030;-72
2024/02/21 08:37:50;;;;;;;15.98;9.10;;;;;;;6.90;64.07;94556.28;5004831;28;20022;-72
2024/02/21 08:40:20;;;;;;;15.85;8.98;;;;;;;6.95;62.64;94557.06;5004826;28;20033;-74
2024/02/21 08:42:47;;;;;;;14.52;8.48;;;;;;;7.06;61.73;94565.75;5004787;28;20049;-76
2024/02/21 08:45:12;;;;;;;14.20;8.48;;;;;;;7.11;61.87;94551.69;5003521;28;20034;-77
2024/02/21 08:47:41;;;;;;;16.17;8.38;;;;;;;7.20;61.47;94555.34;5005133;28;20429;-77
2024/02/21 08:50:09;;;;;;;15.77;8.85;;;;;;;7.20;60.90;94547.38;5004950;28;20033;-77
2024/02/21 08:52:35;;;;;;;16.92;8.82;;;;;;;7.17;61.48;94563.84;5004646;28;20057;-77
2024/02/21 08:55:00;;;;;;;11.95;7.63;;;;;;;7.12;61.84;94562.00;5004714;28;20336;-77
2024/02/21 08:57:27;;;;;;;12.50;7.47;;;;;;;7.13;61.50;94570.75;5004631;28;20324;-76
2024/02/21 08:59:52;;;;;;;19.63;8.95;;;;;;;7.20;62.35;94569.38;5004885;28;20073;-78
2024/02/21 09:02:18;;;;;;;24.17;9.85;;;;;;;7.33;62.09;94569.84;5004558;28;20034;-76
2024/02/21 09:04:46;;;;;;;13.98;8.43;;;;;;;7.39;61.42;94572.19;5004627;28;20030;-77
2024/02/21 09:07:11;;;;;;;20.52;9.07;;;;;;;7.35;61.36;94568.50;5004847;28;20030;-76
2024/02/21 09:09:40;;;;;;;12.32;8.23;;;;;;;7.38;61.86;94565.28;5003732;28;20273;-77
2024/02/21 09:12:07;;;;;;;12.55;8.23;;;;;;;7.35;62.11;94559.78;5004751;28;20022;-77
2024/02/21 09:14:33;;;;;;;14.20;8.70;;;;;;;7.45;62.85;94562.34;5004796;28;20206;-77
2024/02/21 09:16:58;;;;;;;20.60;9.05;;;;;;;7.48;62.73;94574.25;5003331;28;20057;-77
2024/02/21 09:19:24;;;;;;;18.05;9.63;;;;;;;7.62;62.39;94559.31;5004316;28;20073;-77
2024/02/21 09:21:49;;;;;;;18.45;10.27;;;;;;;7.70;62.31;94561.38;5003062;28;20041;-77
2024/02/21 09:24:15;;;;;;;15.93;9.43;;;;;;;7.68;61.89;94557.41;5004486;28;20026;-77
2024/02/21 09:26:40;;;;;;;13.93;8.30;;;;;;;7.69;61.06;94565.06;5004464;28;20117;-77
2024/02/21 09:29:05;;;;;;;18.88;8.45;;;;;;;7.60;61.29;94559.56;5004384;28;20383;-77
2024/02/21 09:31:31;;;;;;;19.25;8.98;;;;;;;7.59;61.72;94567.81;5004304;28;20101;-75
2024/02/21 09:33:56;;;;;;;19.50;9.57;;;;;;;7.61;61.63;94560.38;5003877;28;20356;-78
2024/02/21 09:36:22;;;;;;;14.25;8.35;;;;;;;7.58;61.78;94574.97;5004140;28;20018;-79
2024/02/21 09:38:47;;;;;;;20.55;8.50;;;;;;;7.59;61.71;94555.34;5004189;28;20022;-77
2024/02/21 09:41:17;;;;;;;22.25;9.70;;;;;;;7.56;61.47;94558.53;5003731;28;20022;-77
2024/02/21 09:43:45;;;;;;;18.60;8.05;;;;;;;7.51;61.74;94565.75;5004298;28;20014;-78
2024/02/21 09:46:21;;;;;;;17.55;8.50;;;;;;;7.56;61.88;94555.09;5004164;28;20022;-77
2024/02/21 09:48:55;;;;;;;14.00;7.68;;;;;;;7.58;61.88;94572.31;5004192;28;20248;-77
2024/02/21 09:51:21;;;;;;;13.73;8.18;;;;;;;7.55;60.58;94569.44;5004002;28;20033;-79
2024/02/21 09:53:47;;;;;;;16.05;7.68;;;;;;;7.61;61.08;94570.97;5003880;28;20054;-75
2024/02/21 09:56:13;;;;;;;18.25;9.20;;;;;;;7.62;62.76;94560.09;5004002;28;20317;-78
2024/02/21 09:58:39;;;;;;;16.77;9.13;;;;;;;7.67;63.26;94567.22;5002769;28;20345;-78
2024/02/21 10:01:06;;;;;;;21.92;9.43;;;;;;;7.67;64.16;94556.59;5003662;28;20093;-78
2024/02/21 10:03:33;;;;;;;18.15;9.73;;;;;;;7.72;63.23;94559.22;5004215;28;20018;-78
2024/02/21 10:06:00;;;;;;;20.70;9.40;;;;;;;7.82;62.15;94553.84;5003723;28;20022;-74
2024/02/21 10:08:26;;;;;;;19.27;9.40;;;;;;;7.83;61.43;94552.75;5003897;28;20284;-74
2024/02/21 10:10:55;;;;;;;19.08;9.98;;;;;;;7.83;60.96;94560.72;5003546;28;20055;-75
2024/02/21 10:13:28;;;;;;;14.35;8.07;;;;;;;7.83;60.28;94550.09;5003880;28;20264;-74
2024/02/21 10:16:08;;;;;;;14.13;8.40;;;;;;;7.81;59.87;94549.59;5003641;28;20105;-74
2024/02/21 10:18:36;;;;;;;12.45;6.80;;;;;;;7.92;58.70;94549.53;5003210;28;20050;-74
2024/02/21 10:21:06;;;;;;;10.65;6.97;;;;;;;7.95;59.20;94541.78;5003454;28;20030;-75
2024/02/21 10:23:49;;;;;;;12.48;7.10;;;;;;;8.04;58.48;94545.44;5003324;28;20081;-75
2024/02/21 10:26:15;;;;;;;;;;;;;;;8.00;56.12;94538.31;5003528;28;20368;-74
2024/02/21 10:28:42;;;;;;;9.45;5.80;;;;;;;8.00;56.94;94533.00;5003960;28;19912;-74
2024/02/21 10:31:09;;;;;;;12.63;6.45;;;;;;;8.07;56.54;94528.13;5003425;28;20033;-76
2024/02/21 10:33:34;;;;;;;11.02;5.90;;;;;;;8.10;56.75;94522.28;5003293;28;20026;-76
2024/02/21 10:36:10;;;;;;;12.98;7.03;;;;;;;8.12;56.85;94528.09;5003359;28;20379;-76
2024/02/21 10:38:37;;;;;;;9.73;6.38;;;;;;;8.21;56.08;94521.09;5003374;28;20072;-75
2024/02/21 10:41:04;;;;;;;11.80;6.00;;;;;;;8.22;56.20;94509.41;5003213;28;20036;-75
2024/02/21 10:43:33;;;;;;;8.60;5.72;;;;;;;8.17;55.64;94501.47;5003086;28;20026;-75
2024/02/21 10:46:04;;;;;;;9.95;5.90;;;;;;;8.30;56.00;94493.91;5002936;28;20052;-76
2024/02/21 10:48:44;;;;;;;9.00;5.18;;;;;;;8.32;53.62;94486.44;5003035;28;20026;-74
2024/02/21 10:51:19;;;;;;;9.93;5.68;;;;;;;8.28;54.51;94485.44;5003612;28;20053;-75
2024/02/21 10:53:48;;;;;;;11.77;6.43;;;;;;;8.43;54.86;94480.00;5003643;28;20097;-75
2024/02/21 10:56:23;;;;;;;9.00;5.60;;;;;;;8.55;53.60;94472.41;5007004;28;20042;-75
2024/02/21 10:58:49;;;;;;;12.82;5.30;;;;;;;8.58;52.40;94482.44;5007360;28;20084;-77
2024/02/21 11:01:17;;;;;;;9.77;5.50;;;;;;;8.67;52.89;94469.34;5006946;28;20077;-76
2024/02/21 11:03:46;;;;;;;6.75;4.80;;;;;;;8.83;51.98;94464.59;5006850;28;20026;-77
2024/02/21 11:06:17;;;;;;;6.03;3.95;;;;;;;8.91;50.96;94461.28;5007027;28;20026;-76
2024/02/21 11:08:42;;;;;;;8.95;5.18;;;;;;;9.01;50.61;94463.00;5007315;28;20026;-76
2024/02/21 11:11:08;;;;;;;9.05;5.13;;;;;;;9.19;49.93;94456.91;5007065;28;20037;-76
2024/02/21 11:13:37;;;;;;;10.40;5.82;;;;;;;9.36;50.02;94459.06;5006649;28;20026;-76
2024/02/21 11:16:10;;;;;;;9.02;4.50;;;;;;;9.39;49.96;94453.13;5006971;28;20026;-76
2024/02/21 11:18:39;;;;;;;8.90;5.25;;;;;;;9.49;49.22;94464.72;5007017;28;20030;-76
2024/02/21 11:21:05;;;;;;;7.20;4.85;;;;;;;9.56;48.76;94449.13;5007147;28;20122;-77
2024/02/21 11:23:31;;;;;;;9.07;4.50;;;;;;;9.59;48.45;94460.00;5006679;28;20037;-77
2024/02/21 11:26:10;;;;;;;5.10;3.17;;;;;;;9.50;46.61;94461.72;5005675;28;20023;-76
2024/02/21 11:28:39;;;;;;;9.50;3.78;;;;;;;9.46;46.89;94455.41;5005717;28;20081;-77